Carterville, Texas
Current Conditions -  °F | °C
As of 7:15 PM on Tuesday 27 Jan 2015 (Local Time) from KASL Reporting Station
Clear Clear  
Wind Chill: 56°   Ceiling: Unl
Heat Index: 56°   Visibility: NA
Dew Point: 44°   Wind: 0mph
Humidity: 63%   Direction: NA
Pressure: 30.15"   Gusts: NA
Location:  33.0065°N, 94.3775°W
Report Text: KASL 280115Z AUTO 00000KT CLR 14/07 A3015 RMK AO1 T01350066
Loading
Personal Weather Stations






























Interactive Weather Map New forecast layout! Learn more

10-Day Weather Forecast

Advertisements
Track Severe Weather on mobile